Indianapolis, Indiana
Current Conditions -  °F | °C
As of 2:54 PM on Sunday 21 Dec 2014 (Local Time) from KIND Reporting Station
Broken Clouds Broken Clouds  
Wind Chill: 30°   Ceiling: 24000
Heat Index: 36°   Visibility: 8mi
Dew Point: 27°   Wind: 7mph
Humidity: 70%   Direction: 110°ESE
Pressure: 30.16"   Gusts: NA
Location:  39.77°N, 86.15°W
Report Text: KIND 211954Z 11006KT 8SM BKN240 02/M03 A3016 RMK AO2 SLP221 T00221028
Loading
Personal Weather Stations






























Interactive Weather Map New forecast layout! Learn more

10-Day Weather Forecast

Advertisements
Track Severe Weather on mobile